createdAt,value
2018-02-10T00:00:04.628Z,-0.10
2018-02-10T00:01:04.805Z,-0.10
2018-02-10T00:02:05.406Z,-0.10
2018-02-10T00:03:05.493Z,-0.10
2018-02-10T00:04:04.996Z,-0.10
2018-02-10T00:05:05.423Z,-0.10
2018-02-10T00:06:05.521Z,-0.10
2018-02-10T00:07:04.966Z,-0.10
2018-02-10T00:08:05.112Z,-0.10
2018-02-10T00:09:04.896Z,-0.10
2018-02-10T00:10:04.917Z,-0.10
2018-02-10T00:11:05.677Z,-0.10
2018-02-10T00:12:05.143Z,-0.10
2018-02-10T00:13:05.409Z,-0.10
2018-02-10T00:14:04.871Z,-0.10
2018-02-10T00:15:05.219Z,-0.10
2018-02-10T00:16:05.386Z,-0.10
2018-02-10T00:17:04.956Z,-0.10
2018-02-10T00:18:05.198Z,-0.10
2018-02-10T00:19:05.524Z,-0.10
2018-02-10T00:20:05.253Z,-0.10
2018-02-10T00:21:04.673Z,-0.10
2018-02-10T00:22:04.974Z,-0.10
2018-02-10T00:23:06.028Z,-0.10
2018-02-10T00:24:04.695Z,-0.20
2018-02-10T00:25:04.778Z,-0.10
2018-02-10T00:26:05.533Z,-0.10
2018-02-10T00:27:05.085Z,-0.10
2018-02-10T00:28:04.631Z,-0.10
2018-02-10T00:29:05.042Z,-0.10
2018-02-10T00:30:05.206Z,-0.10
2018-02-10T00:31:06.692Z,-0.10
2018-02-10T00:32:05.209Z,-0.10
2018-02-10T00:33:04.708Z,-0.10
2018-02-10T00:34:05.231Z,-0.10
2018-02-10T00:35:04.735Z,-0.10
2018-02-10T00:36:04.740Z,-0.10
2018-02-10T00:37:04.790Z,-0.10
2018-02-10T00:38:04.718Z,-0.10
2018-02-10T00:39:04.635Z,-0.10
2018-02-10T00:40:05.404Z,-0.10
2018-02-10T00:41:04.831Z,-0.10
2018-02-10T00:42:05.323Z,-0.10
2018-02-10T00:43:04.790Z,-0.10
2018-02-10T00:44:04.804Z,-0.10
2018-02-10T00:45:04.967Z,-0.10
2018-02-10T00:46:05.214Z,-0.10
2018-02-10T00:47:04.989Z,-0.10
2018-02-10T00:48:04.912Z,-0.10
2018-02-10T00:49:05.210Z,-0.10
2018-02-10T00:50:05.299Z,-0.10
2018-02-10T00:51:04.868Z,-0.10
2018-02-10T00:52:05.388Z,-0.10
2018-02-10T00:53:05.156Z,-0.10
2018-02-10T00:54:05.630Z,-0.10
2018-02-10T00:55:05.034Z,-0.10
2018-02-10T00:56:05.524Z,-0.10
2018-02-10T00:57:04.902Z,-0.10
2018-02-10T00:58:04.712Z,-0.10
2018-02-10T00:59:05.210Z,-0.10
2018-02-10T01:00:05.054Z,-0.10
2018-02-10T01:01:04.968Z,-0.10
2018-02-10T01:02:05.368Z,-0.10
2018-02-10T01:03:04.737Z,-0.10
2018-02-10T01:04:04.896Z,-0.10
2018-02-10T01:05:05.042Z,-0.10
2018-02-10T01:06:04.863Z,-0.10
2018-02-10T01:07:05.147Z,-0.10
2018-02-10T01:08:05.424Z,-0.10
2018-02-10T01:09:05.278Z,-0.10
2018-02-10T01:10:04.966Z,-0.10
2018-02-10T01:11:04.840Z,-0.10
2018-02-10T01:12:04.802Z,-0.10
2018-02-10T01:13:05.404Z,-0.10
2018-02-10T01:14:04.643Z,-0.10
2018-02-10T01:15:04.872Z,-0.10
2018-02-10T01:16:05.603Z,-0.10
2018-02-10T01:17:05.580Z,-0.10
2018-02-10T01:18:05.431Z,-0.10
2018-02-10T01:19:05.302Z,-0.10
2018-02-10T01:20:04.790Z,-0.10
2018-02-10T01:21:04.752Z,-0.10
2018-02-10T01:22:05.692Z,-0.10
2018-02-10T01:23:05.058Z,-0.10
2018-02-10T01:24:05.205Z,-0.10
2018-02-10T01:25:04.667Z,-0.10
2018-02-10T01:26:05.407Z,-0.10
2018-02-10T01:27:05.336Z,-0.10
2018-02-10T01:28:05.409Z,-0.10
2018-02-10T01:29:05.495Z,-0.10
2018-02-10T01:30:04.928Z,-0.10
2018-02-10T01:31:05.455Z,-0.10
2018-02-10T01:32:05.311Z,-0.10
2018-02-10T01:33:04.835Z,-0.10
2018-02-10T01:34:05.178Z,-0.10
2018-02-10T01:35:05.345Z,-0.10
2018-02-10T01:36:05.072Z,-0.10
2018-02-10T01:37:06.385Z,-0.10
2018-02-10T01:38:05.264Z,-0.10
2018-02-10T01:39:05.563Z,-0.10
2018-02-10T01:40:05.567Z,-0.10
2018-02-10T01:41:05.165Z,-0.10
2018-02-10T01:42:04.877Z,-0.10
2018-02-10T01:43:05.141Z,-0.10
2018-02-10T01:44:04.672Z,-0.10
2018-02-10T01:45:05.110Z,-0.10
2018-02-10T01:46:05.115Z,-0.10
2018-02-10T01:47:05.560Z,-0.10
2018-02-10T01:48:05.650Z,0.00
2018-02-10T01:49:04.794Z,-0.10
2018-02-10T01:50:04.760Z,-0.10
2018-02-10T01:51:04.652Z,0.00
2018-02-10T01:52:05.328Z,0.00
2018-02-10T01:53:05.666Z,-0.10
2018-02-10T01:54:05.451Z,-0.10
2018-02-10T01:55:04.889Z,-0.10
2018-02-10T01:56:04.663Z,-0.10
2018-02-10T01:57:05.578Z,-0.10
2018-02-10T01:58:04.998Z,-0.10
2018-02-10T01:59:04.793Z,-0.10
2018-02-10T02:00:05.054Z,0.00
2018-02-10T02:01:05.040Z,0.00
2018-02-10T02:02:05.522Z,-0.10
2018-02-10T02:03:04.913Z,0.00
2018-02-10T02:04:05.550Z,-0.10
2018-02-10T02:05:05.511Z,0.00
2018-02-10T02:06:04.742Z,0.00
2018-02-10T02:07:04.676Z,-0.10
2018-02-10T02:08:05.288Z,0.00
2018-02-10T02:09:04.861Z,0.00
2018-02-10T02:10:05.169Z,0.00
2018-02-10T02:11:04.604Z,0.00
2018-02-10T02:12:05.012Z,0.00
2018-02-10T02:13:05.185Z,0.00
2018-02-10T02:14:04.688Z,0.00
2018-02-10T02:15:05.072Z,0.00
2018-02-10T02:16:04.765Z,0.00
2018-02-10T02:17:05.347Z,0.00
2018-02-10T02:18:05.646Z,0.00
2018-02-10T02:19:06.746Z,0.00
2018-02-10T02:20:09.856Z,0.00
2018-02-10T02:21:04.769Z,-0.10
2018-02-10T02:22:05.275Z,0.00
2018-02-10T02:23:05.387Z,0.00
2018-02-10T02:24:04.736Z,0.00
2018-02-10T02:25:05.591Z,0.00
2018-02-10T02:26:05.070Z,0.00
2018-02-10T02:27:04.842Z,0.00
2018-02-10T02:28:04.667Z,0.00
2018-02-10T02:29:04.854Z,0.00
2018-02-10T02:30:05.011Z,0.00
2018-02-10T02:31:04.631Z,0.00
2018-02-10T02:32:04.806Z,0.00
2018-02-10T02:33:05.521Z,0.00
2018-02-10T02:34:05.094Z,0.00
2018-02-10T02:35:05.641Z,0.00
2018-02-10T02:36:04.789Z,0.00
2018-02-10T02:37:05.082Z,0.00
2018-02-10T02:38:05.111Z,0.00
2018-02-10T02:39:04.796Z,0.00
2018-02-10T02:40:04.706Z,0.00
2018-02-10T02:41:05.540Z,0.00
2018-02-10T02:42:05.435Z,0.00
2018-02-10T02:43:05.025Z,0.00
2018-02-10T02:44:05.218Z,0.00
2018-02-10T02:45:05.115Z,0.00
2018-02-10T02:46:04.852Z,0.00
2018-02-10T02:47:05.141Z,0.00
2018-02-10T02:48:05.611Z,0.00
2018-02-10T02:49:05.032Z,0.00
2018-02-10T02:50:05.575Z,0.00
2018-02-10T02:51:05.396Z,-0.10
2018-02-10T02:52:05.408Z,0.00
2018-02-10T02:53:04.850Z,0.00
2018-02-10T02:54:05.034Z,-0.10
2018-02-10T02:55:05.710Z,-0.10
2018-02-10T02:56:05.265Z,-0.10
2018-02-10T02:57:04.739Z,-0.10
2018-02-10T02:58:05.204Z,-0.10
2018-02-10T02:59:05.606Z,0.00
2018-02-10T03:00:04.904Z,-0.10
2018-02-10T03:01:04.686Z,-0.10
2018-02-10T03:02:05.186Z,-0.10
2018-02-10T03:03:05.262Z,-0.10
2018-02-10T03:04:05.500Z,-0.10
2018-02-10T03:05:05.029Z,-0.10
2018-02-10T03:06:05.373Z,-0.10
2018-02-10T03:07:05.232Z,-0.10
2018-02-10T03:08:04.744Z,-0.10
2018-02-10T03:09:04.776Z,-0.10
2018-02-10T03:10:05.471Z,-0.10
2018-02-10T03:11:04.990Z,-0.10
2018-02-10T03:12:04.727Z,-0.10
2018-02-10T03:13:04.685Z,-0.10
2018-02-10T03:14:05.061Z,-0.10
2018-02-10T03:15:05.264Z,-0.10
2018-02-10T03:16:05.312Z,-0.10
2018-02-10T03:17:05.221Z,-0.10
2018-02-10T03:18:04.945Z,-0.10
2018-02-10T03:19:05.459Z,-0.10
2018-02-10T03:20:04.808Z,-0.10
2018-02-10T03:21:04.754Z,-0.10
2018-02-10T03:22:05.030Z,-0.10
2018-02-10T03:23:05.756Z,-0.10
2018-02-10T03:24:05.252Z,-0.10
2018-02-10T03:25:04.981Z,-0.10
2018-02-10T03:26:05.138Z,-0.10
2018-02-10T03:27:05.037Z,-0.10
2018-02-10T03:28:05.100Z,-0.10
2018-02-10T03:29:05.496Z,-0.10
2018-02-10T03:30:04.914Z,-0.10
2018-02-10T03:31:05.546Z,-0.10
2018-02-10T03:32:05.023Z,-0.10
2018-02-10T03:33:05.079Z,-0.10
2018-02-10T03:34:05.644Z,-0.10
2018-02-10T03:35:05.400Z,-0.10
2018-02-10T03:36:05.089Z,-0.10
2018-02-10T03:37:04.872Z,-0.10
2018-02-10T03:38:05.079Z,-0.10
2018-02-10T03:39:04.830Z,-0.10
2018-02-10T03:40:05.192Z,-0.10
2018-02-10T03:41:04.758Z,-0.10
2018-02-10T03:42:05.323Z,-0.10
2018-02-10T03:43:04.710Z,-0.10
2018-02-10T03:44:05.174Z,-0.10
2018-02-10T03:45:05.556Z,-0.10
2018-02-10T03:46:04.988Z,-0.10
2018-02-10T03:47:04.654Z,-0.10
2018-02-10T03:48:05.450Z,-0.10
2018-02-10T03:49:04.700Z,-0.10
2018-02-10T03:50:05.144Z,-0.10
2018-02-10T03:51:04.702Z,-0.10
2018-02-10T03:52:05.458Z,-0.10
2018-02-10T03:53:05.073Z,-0.10
2018-02-10T03:54:04.974Z,-0.10
2018-02-10T03:55:05.515Z,-0.10
2018-02-10T03:56:05.190Z,-0.10
2018-02-10T03:57:04.879Z,-0.10
2018-02-10T03:58:05.585Z,-0.10
2018-02-10T03:59:05.548Z,-0.10
2018-02-10T04:00:05.598Z,-0.10
2018-02-10T04:01:05.327Z,-0.10
2018-02-10T04:02:05.206Z,-0.10
2018-02-10T04:03:04.746Z,-0.10
2018-02-10T04:04:05.112Z,-0.10
2018-02-10T04:05:04.668Z,-0.10
2018-02-10T04:06:05.458Z,-0.10
2018-02-10T04:07:04.810Z,-0.10
2018-02-10T04:08:05.110Z,-0.10
2018-02-10T04:09:05.580Z,-0.10
2018-02-10T04:10:04.947Z,-0.10
2018-02-10T04:11:04.967Z,-0.10
2018-02-10T04:12:04.914Z,-0.10
2018-02-10T04:13:05.160Z,-0.10
2018-02-10T04:14:05.587Z,-0.10
2018-02-10T04:15:05.575Z,-0.10
2018-02-10T04:16:04.801Z,-0.10
2018-02-10T04:17:05.391Z,-0.10
2018-02-10T04:18:05.631Z,-0.10
2018-02-10T04:19:05.190Z,-0.10
2018-02-10T04:20:05.049Z,-0.20
2018-02-10T04:21:05.650Z,-0.20
2018-02-10T04:22:04.637Z,-0.10
2018-02-10T04:23:04.995Z,-0.20
2018-02-10T04:24:05.274Z,-0.10
2018-02-10T04:25:05.326Z,-0.10
2018-02-10T04:26:04.950Z,-0.20
2018-02-10T04:27:04.705Z,-0.10
2018-02-10T04:28:04.854Z,-0.10
2018-02-10T04:29:05.532Z,-0.10
2018-02-10T04:30:05.021Z,-0.10
2018-02-10T04:31:04.628Z,-0.10
2018-02-10T04:32:05.279Z,-0.10
2018-02-10T04:33:05.583Z,-0.10
2018-02-10T04:34:05.635Z,-0.10
2018-02-10T04:35:04.851Z,-0.10
2018-02-10T04:36:05.478Z,-0.10
2018-02-10T04:37:04.622Z,-0.10
2018-02-10T04:38:05.110Z,-0.10
2018-02-10T04:39:05.494Z,-0.10
2018-02-10T04:40:05.113Z,-0.20
2018-02-10T04:41:04.682Z,-0.10
2018-02-10T04:42:05.067Z,-0.10
2018-02-10T04:43:04.622Z,-0.10
2018-02-10T04:44:05.235Z,-0.10
2018-02-10T04:45:05.590Z,-0.10
2018-02-10T04:46:05.043Z,-0.10
2018-02-10T04:47:05.146Z,-0.10
2018-02-10T04:48:09.958Z,-0.10
2018-02-10T04:49:05.397Z,-0.10
2018-02-10T04:50:04.960Z,-0.10
2018-02-10T04:51:05.598Z,-0.10
2018-02-10T04:52:05.688Z,-0.10
2018-02-10T04:53:05.248Z,-0.10
2018-02-10T04:54:05.002Z,-0.10
2018-02-10T04:55:04.881Z,-0.10
2018-02-10T04:56:05.306Z,-0.10
2018-02-10T04:57:04.770Z,-0.10
2018-02-10T04:58:04.867Z,-0.10
2018-02-10T04:59:05.127Z,-0.10
2018-02-10T05:00:05.215Z,-0.10
2018-02-10T05:01:04.996Z,-0.10
2018-02-10T05:02:05.198Z,-0.10
2018-02-10T05:03:05.464Z,-0.20
2018-02-10T05:04:05.118Z,-0.10
2018-02-10T05:05:05.502Z,-0.10
2018-02-10T05:06:05.552Z,-0.10
2018-02-10T05:07:05.551Z,-0.10
2018-02-10T05:08:05.415Z,-0.10
2018-02-10T05:09:04.932Z,-0.10
2018-02-10T05:10:05.474Z,-0.10
2018-02-10T05:11:04.995Z,-0.10
2018-02-10T05:12:05.249Z,-0.10
2018-02-10T05:13:04.770Z,-0.10
2018-02-10T05:14:05.250Z,-0.10
2018-02-10T05:15:04.793Z,-0.10
2018-02-10T05:16:04.784Z,-0.20
2018-02-10T05:17:04.912Z,-0.10
2018-02-10T05:18:04.882Z,-0.10
2018-02-10T05:19:05.471Z,-0.20
2018-02-10T05:20:04.675Z,-0.10
2018-02-10T05:21:04.930Z,-0.20
2018-02-10T05:22:04.673Z,-0.10
2018-02-10T05:23:06.047Z,-0.10
2018-02-10T05:24:05.030Z,-0.10
2018-02-10T05:25:05.885Z,-0.10
2018-02-10T05:26:05.372Z,-0.10
2018-02-10T05:27:08.573Z,-0.10
2018-02-10T05:28:05.454Z,-0.20
2018-02-10T05:29:04.680Z,-0.20
2018-02-10T05:30:05.000Z,-0.20
2018-02-10T05:31:05.699Z,-0.20
2018-02-10T05:32:05.116Z,-0.20
2018-02-10T05:33:04.931Z,-0.20
2018-02-10T05:34:04.759Z,-0.20
2018-02-10T05:35:04.737Z,-0.20
2018-02-10T05:36:05.463Z,-0.20
2018-02-10T05:37:05.433Z,-0.20
2018-02-10T05:38:05.654Z,-0.20
2018-02-10T05:39:05.521Z,-0.20
2018-02-10T05:40:05.432Z,-0.20
2018-02-10T05:41:05.268Z,-0.20
2018-02-10T05:42:05.217Z,-0.20
2018-02-10T05:43:04.844Z,-0.20
2018-02-10T05:44:04.849Z,-0.20
2018-02-10T05:45:05.176Z,-0.20
2018-02-10T05:46:05.066Z,-0.20
2018-02-10T05:47:05.390Z,-0.20
2018-02-10T05:48:05.450Z,-0.20
2018-02-10T05:49:05.063Z,-0.20
2018-02-10T05:50:05.225Z,-0.20
2018-02-10T05:51:04.857Z,-0.20
2018-02-10T05:52:04.909Z,-0.20
2018-02-10T05:53:05.270Z,-0.20
2018-02-10T05:54:04.872Z,-0.20
2018-02-10T05:55:04.885Z,-0.20
2018-02-10T05:56:04.752Z,-0.20
2018-02-10T05:57:04.927Z,-0.20
2018-02-10T05:58:05.403Z,-0.20
2018-02-10T05:59:05.159Z,-0.20
2018-02-10T06:00:05.626Z,-0.20
2018-02-10T06:01:05.208Z,-0.20
2018-02-10T06:02:04.714Z,-0.10
2018-02-10T06:03:04.778Z,-0.20
2018-02-10T06:04:05.532Z,-0.10
2018-02-10T06:05:05.616Z,-0.10
2018-02-10T06:06:05.539Z,-0.10
2018-02-10T06:07:05.395Z,-0.10
2018-02-10T06:08:05.005Z,-0.10
2018-02-10T06:09:05.078Z,-0.10
2018-02-10T06:10:05.473Z,-0.10
2018-02-10T06:11:08.342Z,-0.10
2018-02-10T06:12:05.207Z,-0.10
2018-02-10T06:13:04.987Z,-0.10
2018-02-10T06:14:05.306Z,-0.10
2018-02-10T06:15:05.637Z,-0.10
2018-02-10T06:16:05.435Z,-0.10
2018-02-10T06:17:05.411Z,-0.20
2018-02-10T06:18:05.326Z,-0.10
2018-02-10T06:19:04.657Z,-0.20
2018-02-10T06:20:05.343Z,-0.10
2018-02-10T06:21:05.426Z,-0.10
2018-02-10T06:22:04.873Z,-0.20
2018-02-10T06:23:05.702Z,-0.20
2018-02-10T06:24:04.633Z,-0.20
2018-02-10T06:25:10.221Z,-0.20
2018-02-10T06:26:05.139Z,-0.20
2018-02-10T06:27:04.688Z,-0.20
2018-02-10T06:28:04.669Z,-0.20
2018-02-10T06:29:05.071Z,-0.20
2018-02-10T06:30:04.864Z,-0.20
2018-02-10T06:31:04.795Z,-0.20
2018-02-10T06:32:05.200Z,-0.20
2018-02-10T06:33:05.323Z,-0.20
2018-02-10T06:34:04.940Z,-0.20
2018-02-10T06:35:05.175Z,-0.20
2018-02-10T06:36:05.423Z,-0.20
2018-02-10T06:37:05.714Z,-0.20
2018-02-10T06:38:05.025Z,-0.20
2018-02-10T06:39:04.916Z,-0.20
2018-02-10T06:40:04.818Z,-0.20
2018-02-10T06:41:05.394Z,-0.20
2018-02-10T06:42:04.751Z,-0.20
2018-02-10T06:43:05.686Z,-0.20
2018-02-10T06:44:05.091Z,-0.20
2018-02-10T06:45:05.357Z,-0.20
2018-02-10T06:46:05.050Z,-0.20
2018-02-10T06:47:05.144Z,-0.10
2018-02-10T06:48:04.835Z,-0.20
2018-02-10T06:49:05.450Z,-0.20
2018-02-10T06:50:05.486Z,-0.10
2018-02-10T06:51:05.056Z,-0.10
2018-02-10T06:52:05.467Z,-0.10
2018-02-10T06:53:05.213Z,-0.10
2018-02-10T06:54:04.694Z,-0.10
2018-02-10T06:55:04.801Z,-0.10
2018-02-10T06:56:05.314Z,-0.10
2018-02-10T06:57:05.732Z,-0.10
2018-02-10T06:58:05.242Z,-0.10
2018-02-10T06:59:05.319Z,-0.10
2018-02-10T07:00:05.088Z,-0.10
2018-02-10T07:01:05.589Z,-0.10
2018-02-10T07:02:05.318Z,-0.10
2018-02-10T07:03:04.723Z,-0.10
2018-02-10T07:04:04.943Z,-0.10
2018-02-10T07:05:06.277Z,-0.10
2018-02-10T07:06:05.022Z,-0.10
2018-02-10T07:07:05.121Z,-0.10
2018-02-10T07:08:04.815Z,-0.10
2018-02-10T07:09:05.435Z,-0.10
2018-02-10T07:10:04.741Z,-0.10
2018-02-10T07:11:05.503Z,-0.10
2018-02-10T07:12:05.471Z,-0.10
2018-02-10T07:13:05.408Z,-0.10
2018-02-10T07:14:05.026Z,-0.10
2018-02-10T07:15:04.838Z,-0.10
2018-02-10T07:16:05.210Z,-0.10
2018-02-10T07:17:05.513Z,-0.10
2018-02-10T07:18:05.347Z,-0.10
2018-02-10T07:19:05.249Z,-0.10
2018-02-10T07:20:04.944Z,-0.10
2018-02-10T07:21:04.880Z,-0.10
2018-02-10T07:22:04.890Z,-0.10
2018-02-10T07:23:04.782Z,-0.10
2018-02-10T07:24:04.764Z,-0.10
2018-02-10T07:25:05.172Z,-0.10
2018-02-10T07:26:04.791Z,-0.10
2018-02-10T07:27:06.403Z,-0.10
2018-02-10T07:28:05.534Z,-0.10
2018-02-10T07:29:05.473Z,-0.10
2018-02-10T07:30:05.414Z,-0.10
2018-02-10T07:31:05.040Z,-0.10
2018-02-10T07:32:04.986Z,-0.10
2018-02-10T07:33:04.776Z,-0.10
2018-02-10T07:34:04.811Z,-0.10
2018-02-10T07:35:05.233Z,-0.10
2018-02-10T07:36:05.182Z,-0.10
2018-02-10T07:37:04.902Z,-0.10
2018-02-10T07:38:05.533Z,-0.10
2018-02-10T07:39:04.841Z,-0.10
2018-02-10T07:40:05.433Z,-0.10
2018-02-10T07:41:05.210Z,-0.10
2018-02-10T07:42:04.855Z,0.00
2018-02-10T07:43:04.920Z,0.00
2018-02-10T07:44:06.050Z,0.00
2018-02-10T07:45:05.712Z,0.00
2018-02-10T07:46:04.716Z,0.00
2018-02-10T07:47:05.360Z,0.00
2018-02-10T07:48:05.509Z,0.00
2018-02-10T07:49:05.735Z,0.00
2018-02-10T07:50:05.117Z,0.00
2018-02-10T07:51:04.727Z,0.00
2018-02-10T07:52:05.680Z,0.00
2018-02-10T07:53:04.944Z,0.00
2018-02-10T07:54:05.592Z,0.00
2018-02-10T07:55:04.895Z,0.00
2018-02-10T07:56:05.576Z,0.00
2018-02-10T07:57:05.257Z,0.00
2018-02-10T07:58:05.283Z,0.00
2018-02-10T07:59:05.262Z,0.00
2018-02-10T08:00:04.995Z,0.00
2018-02-10T08:01:05.117Z,0.00
2018-02-10T08:02:05.315Z,0.00
2018-02-10T08:03:05.607Z,0.00
2018-02-10T08:04:05.389Z,0.10
2018-02-10T08:05:05.527Z,0.10
2018-02-10T08:06:04.870Z,0.10
2018-02-10T08:07:05.501Z,0.10
2018-02-10T08:08:05.643Z,0.10
2018-02-10T08:09:04.952Z,0.10
2018-02-10T08:10:04.947Z,0.10
2018-02-10T08:11:05.454Z,0.10
2018-02-10T08:12:05.102Z,0.10
2018-02-10T08:13:05.517Z,0.10
2018-02-10T08:14:04.913Z,0.10
2018-02-10T08:15:05.257Z,0.10
2018-02-10T08:16:05.596Z,0.20
2018-02-10T08:17:05.172Z,0.20
2018-02-10T08:18:04.791Z,0.20
2018-02-10T08:19:05.180Z,0.20
2018-02-10T08:20:05.629Z,0.20
2018-02-10T08:21:05.430Z,0.20
2018-02-10T08:22:05.431Z,0.20
2018-02-10T08:23:04.760Z,0.20
2018-02-10T08:24:04.839Z,0.20
2018-02-10T08:25:05.585Z,0.20
2018-02-10T08:26:05.141Z,0.20
2018-02-10T08:27:04.648Z,0.20
2018-02-10T08:28:05.230Z,0.20
2018-02-10T08:29:05.176Z,0.20
2018-02-10T08:30:04.902Z,0.30
2018-02-10T08:31:05.503Z,0.20
2018-02-10T08:32:04.877Z,0.30
2018-02-10T08:33:05.146Z,0.30
2018-02-10T08:34:05.410Z,0.30
2018-02-10T08:35:05.681Z,0.30
2018-02-10T08:36:05.450Z,0.30
2018-02-10T08:37:04.795Z,0.30
2018-02-10T08:38:05.055Z,0.30
2018-02-10T08:39:05.430Z,0.30
2018-02-10T08:40:05.328Z,0.30
2018-02-10T08:41:05.578Z,0.30
2018-02-10T08:42:04.688Z,0.30
2018-02-10T08:43:05.480Z,0.30
2018-02-10T08:44:04.995Z,0.30
2018-02-10T08:45:05.535Z,0.30
2018-02-10T08:46:05.013Z,0.30
2018-02-10T08:47:04.671Z,0.30
2018-02-10T08:48:05.190Z,0.30
2018-02-10T08:49:04.839Z,0.40
2018-02-10T08:50:05.153Z,0.40
2018-02-10T08:51:04.861Z,0.40
2018-02-10T08:52:05.486Z,0.40
2018-02-10T08:53:04.796Z,0.40
2018-02-10T08:54:05.424Z,0.40
2018-02-10T08:55:05.191Z,0.40
2018-02-10T08:56:04.816Z,0.40
2018-02-10T08:57:05.551Z,0.40
2018-02-10T08:58:04.932Z,0.50
2018-02-10T08:59:05.228Z,0.50
2018-02-10T09:00:04.892Z,0.50
2018-02-10T09:01:05.520Z,0.50
2018-02-10T09:02:05.054Z,0.50
2018-02-10T09:03:05.534Z,0.50
2018-02-10T09:04:05.338Z,0.50
2018-02-10T09:05:05.413Z,0.50
2018-02-10T09:06:05.078Z,0.50
2018-02-10T09:07:04.876Z,0.50
2018-02-10T09:08:05.459Z,0.60
2018-02-10T09:09:05.027Z,0.60
2018-02-10T09:10:05.233Z,0.60
2018-02-10T09:11:05.552Z,0.60
2018-02-10T09:12:04.941Z,0.60
2018-02-10T09:13:05.171Z,0.60
2018-02-10T09:14:04.768Z,0.60
2018-02-10T09:15:05.480Z,0.60
2018-02-10T09:16:05.576Z,0.70
2018-02-10T09:17:05.378Z,0.70
2018-02-10T09:18:05.456Z,0.70
2018-02-10T09:19:05.177Z,0.70
2018-02-10T09:20:04.930Z,0.70
2018-02-10T09:21:04.820Z,0.70
2018-02-10T09:22:04.932Z,0.70
2018-02-10T09:23:04.910Z,0.70
2018-02-10T09:24:05.497Z,0.70
2018-02-10T09:25:04.998Z,0.70
2018-02-10T09:26:05.145Z,0.80
2018-02-10T09:27:05.436Z,0.80
2018-02-10T09:28:05.013Z,0.80
2018-02-10T09:29:04.678Z,0.80
2018-02-10T09:30:04.825Z,0.80
2018-02-10T09:31:05.464Z,0.80
2018-02-10T09:32:04.646Z,0.80
2018-02-10T09:33:05.061Z,0.80
2018-02-10T09:34:05.649Z,0.80
2018-02-10T09:35:05.072Z,0.80
2018-02-10T09:36:04.648Z,0.90
2018-02-10T09:37:05.311Z,0.90
2018-02-10T09:38:05.540Z,0.90
2018-02-10T09:39:05.644Z,0.90
2018-02-10T09:40:05.011Z,0.90
2018-02-10T09:41:05.672Z,0.90
2018-02-10T09:42:05.499Z,0.90
2018-02-10T09:43:05.575Z,0.90
2018-02-10T09:44:05.041Z,0.90
2018-02-10T09:45:04.808Z,1.00
2018-02-10T09:46:05.321Z,1.00
2018-02-10T09:47:05.001Z,1.00
2018-02-10T09:48:05.244Z,1.00
2018-02-10T09:49:06.207Z,1.00
2018-02-10T09:50:05.469Z,1.00
2018-02-10T09:51:05.198Z,1.00
2018-02-10T09:52:05.057Z,1.00
2018-02-10T09:53:04.928Z,1.00
2018-02-10T09:54:05.000Z,1.10
2018-02-10T09:55:05.416Z,1.10
2018-02-10T09:56:04.699Z,1.10
2018-02-10T09:57:06.036Z,1.10
2018-02-10T09:58:04.772Z,1.10
2018-02-10T09:59:04.783Z,1.10
2018-02-10T10:00:04.860Z,1.20
2018-02-10T10:01:05.438Z,1.20
2018-02-10T10:02:04.888Z,1.20
2018-02-10T10:03:05.446Z,1.20
2018-02-10T10:04:04.841Z,1.20
2018-02-10T10:05:04.964Z,1.30
2018-02-10T10:06:05.303Z,1.30
2018-02-10T10:07:05.457Z,1.30
2018-02-10T10:08:05.674Z,1.30
2018-02-10T10:09:05.140Z,1.30
2018-02-10T10:10:05.770Z,1.30
2018-02-10T10:11:05.603Z,1.30
2018-02-10T10:12:04.995Z,1.30
2018-02-10T10:13:05.146Z,1.40
2018-02-10T10:14:05.508Z,1.40
2018-02-10T10:15:05.348Z,1.40
2018-02-10T10:16:05.566Z,1.40
2018-02-10T10:17:05.761Z,1.40
2018-02-10T10:18:05.231Z,1.50
2018-02-10T10:19:05.413Z,1.50
2018-02-10T10:20:04.778Z,1.50
2018-02-10T10:21:04.909Z,1.50
2018-02-10T10:22:05.292Z,1.50
2018-02-10T10:23:05.590Z,1.50
2018-02-10T10:24:05.022Z,1.60
2018-02-10T10:25:04.728Z,1.60
2018-02-10T10:26:04.719Z,1.60
2018-02-10T10:27:04.824Z,1.60
2018-02-10T10:28:04.865Z,1.60
2018-02-10T10:29:05.625Z,1.70
2018-02-10T10:30:05.284Z,1.70
2018-02-10T10:31:04.879Z,1.70
2018-02-10T10:32:05.269Z,1.70
2018-02-10T10:33:05.400Z,1.70
2018-02-10T10:34:05.066Z,1.70
2018-02-10T10:35:05.498Z,1.70
2018-02-10T10:36:04.955Z,1.80
2018-02-10T10:37:05.539Z,1.80
2018-02-10T10:38:05.581Z,1.80
2018-02-10T10:39:05.484Z,1.80
2018-02-10T10:40:04.951Z,1.80
2018-02-10T10:41:04.799Z,1.80
2018-02-10T10:42:05.324Z,1.80
2018-02-10T10:43:05.003Z,1.80
2018-02-10T10:44:04.698Z,1.90
2018-02-10T10:45:05.518Z,1.90
2018-02-10T10:46:04.709Z,1.90
2018-02-10T10:47:04.996Z,1.90
2018-02-10T10:48:05.182Z,1.90
2018-02-10T10:49:05.523Z,1.90
2018-02-10T10:50:05.282Z,1.90
2018-02-10T10:51:04.970Z,1.90
2018-02-10T10:52:05.608Z,2.00
2018-02-10T10:53:05.416Z,2.00
2018-02-10T10:54:04.990Z,2.00
2018-02-10T10:55:05.745Z,2.00
2018-02-10T10:56:04.880Z,2.00
2018-02-10T10:57:05.529Z,2.10
2018-02-10T10:58:04.992Z,2.10
2018-02-10T10:59:05.024Z,2.10
2018-02-10T11:00:04.810Z,2.20
2018-02-10T11:01:05.338Z,2.20
2018-02-10T11:02:04.967Z,2.20
2018-02-10T11:03:05.360Z,2.20
2018-02-10T11:04:04.982Z,2.30
2018-02-10T11:05:05.565Z,2.30
2018-02-10T11:06:04.865Z,2.30
2018-02-10T11:07:05.645Z,2.30
2018-02-10T11:08:05.498Z,2.40
2018-02-10T11:09:04.777Z,2.40
2018-02-10T11:10:04.983Z,2.40
2018-02-10T11:11:05.084Z,2.40
2018-02-10T11:12:05.236Z,2.50
2018-02-10T11:13:05.551Z,2.50
2018-02-10T11:14:04.825Z,2.50
2018-02-10T11:15:04.974Z,2.60
2018-02-10T11:16:05.208Z,2.60
2018-02-10T11:17:05.230Z,2.60
2018-02-10T11:18:05.306Z,2.70
2018-02-10T11:19:05.559Z,2.70
2018-02-10T11:20:05.700Z,2.70
2018-02-10T11:21:05.257Z,2.80
2018-02-10T11:22:05.311Z,2.80
2018-02-10T11:23:04.858Z,2.80
2018-02-10T11:24:04.900Z,2.80
2018-02-10T11:25:05.343Z,2.90
2018-02-10T11:26:04.972Z,2.90
2018-02-10T11:27:04.733Z,3.00
2018-02-10T11:28:05.252Z,3.00
2018-02-10T11:29:04.671Z,3.00
2018-02-10T11:30:05.413Z,3.00
2018-02-10T11:31:04.834Z,3.00
2018-02-10T11:32:05.603Z,3.00
2018-02-10T11:33:04.884Z,3.00
2018-02-10T11:34:05.354Z,3.00
2018-02-10T11:35:05.268Z,3.10
2018-02-10T11:36:05.570Z,3.10
2018-02-10T11:37:05.393Z,3.10
2018-02-10T11:38:05.056Z,3.10
2018-02-10T11:39:05.343Z,3.10
2018-02-10T11:40:04.674Z,3.20
2018-02-10T11:41:05.652Z,3.10
2018-02-10T11:42:05.063Z,3.20
2018-02-10T11:43:04.814Z,3.20
2018-02-10T11:44:05.044Z,3.20
2018-02-10T11:45:05.440Z,3.20
2018-02-10T11:46:04.855Z,3.30
2018-02-10T11:47:05.769Z,3.30
2018-02-10T11:48:05.036Z,3.30
2018-02-10T11:49:05.506Z,3.30
2018-02-10T11:50:05.408Z,3.30
2018-02-10T11:51:04.980Z,3.30
2018-02-10T11:52:05.171Z,3.30
2018-02-10T11:53:05.374Z,3.30
2018-02-10T11:54:05.516Z,3.30
2018-02-10T11:55:05.031Z,3.40
2018-02-10T11:56:05.018Z,3.30
2018-02-10T11:57:05.617Z,3.30
2018-02-10T11:58:05.569Z,3.40
2018-02-10T11:59:04.816Z,3.40
2018-02-10T12:00:05.183Z,3.40
2018-02-10T12:01:05.297Z,3.30
2018-02-10T12:02:04.998Z,3.30
2018-02-10T12:03:05.673Z,3.30
2018-02-10T12:04:05.150Z,3.40
2018-02-10T12:05:05.254Z,3.40
2018-02-10T12:06:05.363Z,3.40
2018-02-10T12:07:05.479Z,3.40
2018-02-10T12:08:05.370Z,3.40
2018-02-10T12:09:05.698Z,3.40
2018-02-10T12:10:04.780Z,3.50
2018-02-10T12:11:05.344Z,3.50
2018-02-10T12:12:05.409Z,3.50
2018-02-10T12:13:05.091Z,3.50
2018-02-10T12:14:05.050Z,3.60
2018-02-10T12:15:05.163Z,3.60
2018-02-10T12:16:05.506Z,3.60
2018-02-10T12:17:05.736Z,3.70
2018-02-10T12:18:05.480Z,3.70
2018-02-10T12:19:04.997Z,3.70
2018-02-10T12:20:05.057Z,3.70
2018-02-10T12:21:05.361Z,3.80
2018-02-10T12:22:05.280Z,3.80
2018-02-10T12:23:05.367Z,3.80
2018-02-10T12:24:05.427Z,3.90
2018-02-10T12:25:05.200Z,3.90
2018-02-10T12:26:05.276Z,4.00
2018-02-10T12:27:05.463Z,4.00
2018-02-10T12:28:04.709Z,4.00
2018-02-10T12:29:05.188Z,4.00
2018-02-10T12:30:05.052Z,4.00
2018-02-10T12:31:04.888Z,4.00
2018-02-10T12:32:05.398Z,4.00
2018-02-10T12:33:05.831Z,4.00
2018-02-10T12:34:05.266Z,4.00
2018-02-10T12:35:05.049Z,4.00
2018-02-10T12:36:05.532Z,4.00
2018-02-10T12:37:05.641Z,4.00
2018-02-10T12:38:04.863Z,4.00
2018-02-10T12:39:05.097Z,4.00
2018-02-10T12:40:04.847Z,4.00
2018-02-10T12:41:04.977Z,4.00
2018-02-10T12:42:05.067Z,4.00
2018-02-10T12:43:04.770Z,4.00
2018-02-10T12:44:04.645Z,4.00
2018-02-10T12:45:05.351Z,4.00
2018-02-10T12:46:05.491Z,4.00
2018-02-10T12:47:04.934Z,4.00
2018-02-10T12:48:05.445Z,4.00
2018-02-10T12:49:04.944Z,4.00
2018-02-10T12:50:05.027Z,4.00
2018-02-10T12:51:04.930Z,4.00
2018-02-10T12:52:04.869Z,4.00
2018-02-10T12:53:05.071Z,4.00
2018-02-10T12:54:05.452Z,4.00
2018-02-10T12:55:05.637Z,4.00
2018-02-10T12:56:04.938Z,4.00
2018-02-10T12:57:04.613Z,4.00
2018-02-10T12:58:05.668Z,4.00
2018-02-10T12:59:05.514Z,4.00
2018-02-10T13:00:04.860Z,4.00
2018-02-10T13:01:04.979Z,4.00
2018-02-10T13:02:05.255Z,4.00
2018-02-10T13:03:05.530Z,4.00
2018-02-10T13:04:05.140Z,4.00